createdAt,value
2017-05-16T00:01:07.965Z,1028.84
2017-05-16T00:02:17.182Z,1028.78
2017-05-16T00:03:26.723Z,1028.84
2017-05-16T00:04:35.627Z,1028.79
2017-05-16T00:05:44.852Z,1028.82
2017-05-16T00:06:53.807Z,1028.8
2017-05-16T00:08:02.711Z,1028.79
2017-05-16T00:09:12.257Z,1028.82
2017-05-16T00:10:21.482Z,1028.82
2017-05-16T00:11:30.378Z,1028.8
2017-05-16T00:12:39.748Z,1028.76
2017-05-16T00:13:48.973Z,1028.74
2017-05-16T00:14:57.869Z,1028.77
2017-05-16T00:16:07.419Z,1028.75
2017-05-16T00:17:16.330Z,1028.76
2017-05-16T00:18:25.329Z,1028.75
2017-05-16T00:19:34.230Z,1028.76
2017-05-16T00:20:43.128Z,1028.76
2017-05-16T00:21:52.022Z,1028.79
2017-05-16T00:23:01.243Z,1028.77
2017-05-16T00:24:10.250Z,1028.71
2017-05-16T00:25:19.795Z,1028.74
2017-05-16T00:26:28.695Z,1028.74
2017-05-16T00:27:37.587Z,1028.72
2017-05-16T00:28:46.811Z,1028.77
2017-05-16T00:29:55.863Z,1028.71
2017-05-16T00:31:05.081Z,1028.7
2017-05-16T00:32:14.634Z,1028.68
2017-05-16T00:33:23.856Z,1028.69
2017-05-16T00:34:32.749Z,1028.71
2017-05-16T00:35:42.125Z,1028.66
2017-05-16T00:36:51.024Z,1028.67
2017-05-16T00:38:00.243Z,1028.65
2017-05-16T00:39:09.464Z,1028.63
2017-05-16T00:40:19.013Z,1028.59
2017-05-16T00:41:28.282Z,1028.53
2017-05-16T00:42:37.182Z,1028.51
2017-05-16T00:43:46.410Z,1028.52
2017-05-16T00:44:55.312Z,1028.52
2017-05-16T00:46:04.206Z,1028.49
2017-05-16T00:47:14.051Z,1028.47
2017-05-16T00:48:22.945Z,1028.48
2017-05-16T00:49:31.893Z,1028.48
2017-05-16T00:50:40.793Z,1028.42
2017-05-16T00:51:50.010Z,1028.43
2017-05-16T00:52:58.959Z,1028.44
2017-05-16T00:54:07.857Z,1028.44
2017-05-16T00:55:17.078Z,1028.44
2017-05-16T00:56:25.970Z,1028.46
2017-05-16T00:57:35.854Z,1028.46
2017-05-16T00:58:45.556Z,1028.47
2017-05-16T00:59:54.458Z,1028.51
2017-05-16T01:01:03.685Z,1028.53
2017-05-16T01:02:12.906Z,1028.57
2017-05-16T01:03:22.455Z,1028.58
2017-05-16T01:04:32.583Z,1028.55
2017-05-16T01:05:41.804Z,1028.53
2017-05-16T01:06:51.357Z,1028.54
2017-05-16T01:08:00.578Z,1028.51
2017-05-16T01:09:09.473Z,1028.5
2017-05-16T01:10:18.422Z,1028.49
2017-05-16T01:11:27.315Z,1028.48
2017-05-16T01:12:36.864Z,1028.49
2017-05-16T01:13:46.417Z,1028.48
2017-05-16T01:14:55.311Z,1028.49
2017-05-16T01:16:04.855Z,1028.47
2017-05-16T01:17:13.747Z,1028.44
2017-05-16T01:18:22.968Z,1028.44
2017-05-16T01:19:32.200Z,1028.36
2017-05-16T01:20:41.755Z,1028.34
2017-05-16T01:21:50.803Z,1028.3
2017-05-16T01:22:59.703Z,1028.31
2017-05-16T01:24:08.926Z,1028.27
2017-05-16T01:25:18.146Z,1028.24
2017-05-16T01:26:27.362Z,1028.27
2017-05-16T01:27:36.319Z,1028.24
2017-05-16T01:28:45.220Z,1028.24
2017-05-16T01:29:55.100Z,1028.21
2017-05-16T01:31:04.646Z,1028.18
2017-05-16T01:32:13.546Z,1028.15
2017-05-16T01:33:22.591Z,1028.16
2017-05-16T01:34:31.807Z,1028.16
2017-05-16T01:35:40.712Z,1028.14
2017-05-16T01:36:49.932Z,1028.16
2017-05-16T01:37:59.479Z,1028.14
2017-05-16T01:39:09.337Z,1028.13
2017-05-16T01:40:18.559Z,1028.12
2017-05-16T01:41:27.453Z,1028.11
2017-05-16T01:42:36.674Z,1028.09
2017-05-16T01:43:46.221Z,1028.04
2017-05-16T01:44:56.098Z,1028.02
2017-05-16T01:46:05.646Z,1027.97
2017-05-16T01:47:14.545Z,1027.97
2017-05-16T01:48:23.442Z,1027.97
2017-05-16T01:49:32.343Z,1027.99
2017-05-16T01:50:41.339Z,1027.92
2017-05-16T01:51:50.895Z,1027.97
2017-05-16T01:52:59.789Z,1027.95
2017-05-16T01:54:09.015Z,1027.97
2017-05-16T01:55:17.910Z,1027.93
2017-05-16T01:56:27.058Z,1027.93
2017-05-16T01:57:35.954Z,1027.91
2017-05-16T01:58:45.506Z,1027.88
2017-05-16T01:59:55.383Z,1027.96
2017-05-16T02:01:04.932Z,1027.96
2017-05-16T02:02:15.204Z,1027.96
2017-05-16T02:03:24.099Z,1027.97
2017-05-16T02:04:33.647Z,1027.94
2017-05-16T02:05:42.873Z,1027.93
2017-05-16T02:06:52.100Z,1027.93
2017-05-16T02:08:01.797Z,1028
2017-05-16T02:09:11.344Z,1027.93
2017-05-16T02:10:20.572Z,1027.95
2017-05-16T02:11:29.468Z,1027.93
2017-05-16T02:12:38.703Z,1027.95
2017-05-16T02:13:48.309Z,1027.98
2017-05-16T02:14:57.531Z,1027.97
2017-05-16T02:16:06.428Z,1027.96
2017-05-16T02:17:15.651Z,1027.95
2017-05-16T02:18:24.870Z,1027.94
2017-05-16T02:19:33.766Z,1027.92
2017-05-16T02:20:42.661Z,1027.95
2017-05-16T02:21:51.876Z,1027.92
2017-05-16T02:23:01.098Z,1027.93
2017-05-16T02:24:10.328Z,1027.93
2017-05-16T02:25:19.936Z,1027.98
2017-05-16T02:26:28.834Z,1027.96
2017-05-16T02:27:37.731Z,1027.94
2017-05-16T02:28:46.955Z,1027.89
2017-05-16T02:29:56.508Z,1027.93
2017-05-16T02:31:05.456Z,1027.97
2017-05-16T02:32:14.351Z,1027.94
2017-05-16T02:33:23.585Z,1027.98
2017-05-16T02:34:33.132Z,1028.02
2017-05-16T02:35:42.029Z,1028.03
2017-05-16T02:36:51.352Z,1028
2017-05-16T02:38:00.900Z,1027.99
2017-05-16T02:39:10.116Z,1027.97
2017-05-16T02:40:19.661Z,1028
2017-05-16T02:41:28.939Z,1028.04
2017-05-16T02:42:39.215Z,1028.04
2017-05-16T02:43:48.763Z,1027.98
2017-05-16T02:44:57.993Z,1028.03
2017-05-16T02:46:07.212Z,1027.98
2017-05-16T02:47:16.754Z,1028.06
2017-05-16T02:48:26.034Z,1028.07
2017-05-16T02:49:35.253Z,1027.97
2017-05-16T02:50:44.831Z,1027.96
2017-05-16T02:51:54.051Z,1027.96
2017-05-16T02:53:02.956Z,1027.87
2017-05-16T02:54:12.011Z,1027.91
2017-05-16T02:55:21.557Z,1027.92
2017-05-16T02:56:31.104Z,1027.86
2017-05-16T02:57:40.335Z,1027.92
2017-05-16T02:58:49.573Z,1027.92
2017-05-16T02:59:58.997Z,1027.92
2017-05-16T03:01:07.897Z,1027.92
2017-05-16T03:02:16.803Z,1027.93
2017-05-16T03:03:25.698Z,1027.93
2017-05-16T03:04:34.917Z,1027.95
2017-05-16T03:05:44.616Z,1027.94
2017-05-16T03:06:53.560Z,1027.96
2017-05-16T03:08:02.778Z,1028
2017-05-16T03:09:11.674Z,1027.97
2017-05-16T03:10:21.229Z,1027.97
2017-05-16T03:11:30.277Z,1027.98
2017-05-16T03:12:39.176Z,1027.92
2017-05-16T03:13:48.078Z,1027.95
2017-05-16T03:14:57.302Z,1027.94
2017-05-16T03:16:06.527Z,1027.95
2017-05-16T03:17:15.575Z,1027.93
2017-05-16T03:18:25.126Z,1027.93
2017-05-16T03:19:34.671Z,1027.88
2017-05-16T03:20:43.892Z,1027.9
2017-05-16T03:21:53.112Z,1027.87
2017-05-16T03:23:02.480Z,1027.87
2017-05-16T03:24:12.031Z,1027.88
2017-05-16T03:25:20.932Z,1027.87
2017-05-16T03:26:30.492Z,1027.87
2017-05-16T03:27:40.041Z,1027.87
2017-05-16T03:28:49.092Z,1027.86
2017-05-16T03:29:58.635Z,1027.87
2017-05-16T03:31:07.533Z,1027.87
2017-05-16T03:32:16.751Z,1027.88
2017-05-16T03:33:25.642Z,1027.86
2017-05-16T03:34:34.962Z,1027.85
2017-05-16T03:35:44.508Z,1027.9
2017-05-16T03:36:53.403Z,1027.89
2017-05-16T03:38:02.298Z,1027.88
2017-05-16T03:39:11.191Z,1027.88
2017-05-16T03:40:20.817Z,1027.87
2017-05-16T03:41:30.043Z,1027.9
2017-05-16T03:42:38.945Z,1027.95
2017-05-16T03:43:48.495Z,1027.85
2017-05-16T03:44:57.392Z,1027.94
2017-05-16T03:46:06.938Z,1027.94
2017-05-16T03:47:16.167Z,1027.95
2017-05-16T03:48:25.713Z,1027.95
2017-05-16T03:49:34.932Z,1027.95
2017-05-16T03:50:44.155Z,1027.95
2017-05-16T03:51:53.522Z,1027.89
2017-05-16T03:53:02.748Z,1027.93
2017-05-16T03:54:12.296Z,1027.92
2017-05-16T03:55:21.194Z,1027.9
2017-05-16T03:56:30.094Z,1027.97
2017-05-16T03:57:40.166Z,1027.98
2017-05-16T03:58:49.065Z,1028
2017-05-16T03:59:58.616Z,1027.96
2017-05-16T04:01:07.511Z,1027.97
2017-05-16T04:02:16.731Z,1027.96
2017-05-16T04:03:26.112Z,1027.9
2017-05-16T04:04:35.342Z,1027.87
2017-05-16T04:05:44.890Z,1027.89
2017-05-16T04:06:53.786Z,1027.89
2017-05-16T04:08:03.380Z,1027.89
2017-05-16T04:09:13.405Z,1027.89
2017-05-16T04:10:22.627Z,1027.91
2017-05-16T04:11:31.850Z,1027.92
2017-05-16T04:12:41.071Z,1027.94
2017-05-16T04:13:50.945Z,1027.97
2017-05-16T04:15:00.642Z,1028.01
2017-05-16T04:16:10.195Z,1027.99
2017-05-16T04:17:19.425Z,1027.98
2017-05-16T04:18:28.645Z,1027.97
2017-05-16T04:19:37.863Z,1028.01
2017-05-16T04:20:47.433Z,1028.02
2017-05-16T04:21:56.978Z,1028.06
2017-05-16T04:23:06.527Z,1028.09
2017-05-16T04:24:16.075Z,1028.07
2017-05-16T04:25:25.627Z,1028.11
2017-05-16T04:26:34.954Z,1028.13
2017-05-16T04:27:44.178Z,1028.12
2017-05-16T04:28:54.378Z,1028.18
2017-05-16T04:30:03.600Z,1028.22
2017-05-16T04:31:13.196Z,1028.27
2017-05-16T04:32:22.616Z,1028.28
2017-05-16T04:33:31.832Z,1028.26
2017-05-16T04:34:41.440Z,1028.27
2017-05-16T04:35:50.664Z,1028.27
2017-05-16T04:36:59.886Z,1028.27
2017-05-16T04:38:09.311Z,1028.28
2017-05-16T04:39:18.861Z,1028.28
2017-05-16T04:40:28.731Z,1028.28
2017-05-16T04:41:37.630Z,1028.31
2017-05-16T04:42:46.857Z,1028.33
2017-05-16T04:43:56.734Z,1028.37
2017-05-16T04:45:05.964Z,1028.34
2017-05-16T04:46:14.864Z,1028.34
2017-05-16T04:47:24.087Z,1028.31
2017-05-16T04:48:33.631Z,1028.35
2017-05-16T04:49:43.658Z,1028.31
2017-05-16T04:50:53.203Z,1028.31
2017-05-16T04:52:02.423Z,1028.31
2017-05-16T04:53:11.643Z,1028.27
2017-05-16T04:54:20.865Z,1028.34
2017-05-16T04:55:30.700Z,1028.31
2017-05-16T04:56:39.920Z,1028.36
2017-05-16T04:57:48.814Z,1028.35
2017-05-16T04:58:58.364Z,1028.35
2017-05-16T05:00:07.594Z,1028.34
2017-05-16T05:01:16.489Z,1028.32
2017-05-16T05:02:25.386Z,1028.34
2017-05-16T05:03:34.627Z,1028.28
2017-05-16T05:04:43.869Z,1028.31
2017-05-16T05:05:53.416Z,1028.31
2017-05-16T05:07:02.635Z,1028.32
2017-05-16T05:08:11.862Z,1028.3
2017-05-16T05:09:21.081Z,1028.3
2017-05-16T05:10:30.638Z,1028.3
2017-05-16T05:11:39.868Z,1028.26
2017-05-16T05:12:49.092Z,1028.28
2017-05-16T05:13:58.647Z,1028.24
2017-05-16T05:15:07.553Z,1028.26
2017-05-16T05:16:16.776Z,1028.27
2017-05-16T05:17:25.997Z,1028.23
2017-05-16T05:18:35.229Z,1028.32
2017-05-16T05:19:44.140Z,1028.33
2017-05-16T05:20:53.362Z,1028.31
2017-05-16T05:22:02.267Z,1028.31
2017-05-16T05:23:11.818Z,1028.33
2017-05-16T05:24:21.368Z,1028.29
2017-05-16T05:25:30.594Z,1028.33
2017-05-16T05:26:39.646Z,1028.35
2017-05-16T05:27:48.868Z,1028.3
2017-05-16T05:28:58.419Z,1028.28
2017-05-16T05:30:07.965Z,1028.29
2017-05-16T05:31:16.857Z,1028.28
2017-05-16T05:32:25.902Z,1028.27
2017-05-16T05:33:34.805Z,1028.28
2017-05-16T05:34:44.355Z,1028.22
2017-05-16T05:35:53.252Z,1028.27
2017-05-16T05:37:02.149Z,1028.24
2017-05-16T05:38:11.195Z,1028.25
2017-05-16T05:39:20.113Z,1028.26
2017-05-16T05:40:29.693Z,1028.31
2017-05-16T05:41:39.064Z,1028.28
2017-05-16T05:42:48.062Z,1028.28
2017-05-16T05:43:57.585Z,1028.3
2017-05-16T05:45:06.819Z,1028.28
2017-05-16T05:46:16.098Z,1028.3
2017-05-16T05:47:25.319Z,1028.32
2017-05-16T05:48:34.215Z,1028.38
2017-05-16T05:49:43.814Z,1028.43
2017-05-16T05:50:52.708Z,1028.45
2017-05-16T05:52:01.928Z,1028.46
2017-05-16T05:53:11.152Z,1028.41
2017-05-16T05:54:20.699Z,1028.42
2017-05-16T05:55:30.302Z,1028.39
2017-05-16T05:56:39.525Z,1028.41
2017-05-16T05:57:48.802Z,1028.37
2017-05-16T05:58:58.018Z,1028.39
2017-05-16T06:00:07.571Z,1028.35
2017-05-16T06:01:16.668Z,1028.36
2017-05-16T06:02:25.897Z,1028.35
2017-05-16T06:03:35.114Z,1028.35
2017-05-16T06:04:44.736Z,1028.33
2017-05-16T06:05:54.611Z,1028.3
2017-05-16T06:07:03.982Z,1028.35
2017-05-16T06:08:13.261Z,1028.34
2017-05-16T06:09:22.486Z,1028.32
2017-05-16T06:10:31.708Z,1028.36
2017-05-16T06:11:40.604Z,1028.35
2017-05-16T06:12:49.608Z,1028.29
2017-05-16T06:13:58.520Z,1028.3
2017-05-16T06:15:07.422Z,1028.31
2017-05-16T06:16:16.316Z,1028.3
2017-05-16T06:17:25.211Z,1028.3
2017-05-16T06:18:34.318Z,1028.35
2017-05-16T06:19:43.217Z,1028.35
2017-05-16T06:20:53.419Z,1028.33
2017-05-16T06:22:02.639Z,1028.34
2017-05-16T06:23:11.538Z,1028.34
2017-05-16T06:24:21.461Z,1028.35
2017-05-16T06:25:30.753Z,1028.34
2017-05-16T06:26:39.654Z,1028.33
2017-05-16T06:27:48.558Z,1028.39
2017-05-16T06:28:58.801Z,1028.34
2017-05-16T06:30:08.362Z,1028.33
2017-05-16T06:31:17.596Z,1028.36
2017-05-16T06:32:26.877Z,1028.32
2017-05-16T06:33:35.779Z,1028.34
2017-05-16T06:34:44.682Z,1028.37
2017-05-16T06:35:54.038Z,1028.36
2017-05-16T06:37:03.256Z,1028.38
2017-05-16T06:38:12.891Z,1028.42
2017-05-16T06:39:22.117Z,1028.44
2017-05-16T06:40:31.348Z,1028.44
2017-05-16T06:41:40.617Z,1028.49
2017-05-16T06:42:49.840Z,1028.48
2017-05-16T06:43:59.390Z,1028.53
2017-05-16T06:45:08.287Z,1028.5
2017-05-16T06:46:17.184Z,1028.53
2017-05-16T06:47:26.879Z,1028.56
2017-05-16T06:48:36.099Z,1028.61
2017-05-16T06:49:45.365Z,1028.6
2017-05-16T06:50:54.936Z,1028.55
2017-05-16T06:52:03.834Z,1028.5
2017-05-16T06:53:12.741Z,1028.54
2017-05-16T06:54:21.964Z,1028.48
2017-05-16T06:55:31.187Z,1028.51
2017-05-16T06:56:40.414Z,1028.58
2017-05-16T06:57:49.365Z,1028.59
2017-05-16T06:59:00.296Z,1028.6
2017-05-16T07:00:09.210Z,1028.62
2017-05-16T07:01:18.430Z,1028.68
2017-05-16T07:02:27.656Z,1028.63
2017-05-16T07:03:36.881Z,1028.63
2017-05-16T07:04:45.884Z,1028.67
2017-05-16T07:05:55.114Z,1028.63
2017-05-16T07:07:04.015Z,1028.65
2017-05-16T07:08:13.239Z,1028.67
2017-05-16T07:09:22.793Z,1028.66
2017-05-16T07:10:32.506Z,1028.65
2017-05-16T07:11:41.410Z,1028.69
2017-05-16T07:12:50.643Z,1028.66
2017-05-16T07:14:00.193Z,1028.67
2017-05-16T07:15:09.097Z,1028.7
2017-05-16T07:16:18.471Z,1028.66
2017-05-16T07:17:27.373Z,1028.7
2017-05-16T07:18:36.606Z,1028.71
2017-05-16T07:19:45.830Z,1028.69
2017-05-16T07:20:55.062Z,1028.66
2017-05-16T07:22:04.690Z,1028.66
2017-05-16T07:23:13.590Z,1028.67
2017-05-16T07:24:23.155Z,1028.67
2017-05-16T07:25:33.034Z,1028.68
2017-05-16T07:26:42.587Z,1028.66
2017-05-16T07:27:52.011Z,1028.67
2017-05-16T07:29:01.560Z,1028.69
2017-05-16T07:30:10.458Z,1028.65
2017-05-16T07:31:19.688Z,1028.67
2017-05-16T07:32:28.600Z,1028.68
2017-05-16T07:33:37.924Z,1028.72
2017-05-16T07:34:47.476Z,1028.69
2017-05-16T07:35:56.379Z,1028.7
2017-05-16T07:37:05.602Z,1028.69
2017-05-16T07:38:14.833Z,1028.63
2017-05-16T07:39:24.283Z,1028.56
2017-05-16T07:40:33.510Z,1028.51
2017-05-16T07:41:42.405Z,1028.5
2017-05-16T07:42:51.333Z,1028.47
2017-05-16T07:44:00.564Z,1028.37
2017-05-16T07:45:10.510Z,1028.38
2017-05-16T07:46:19.403Z,1028.4
2017-05-16T07:47:28.296Z,1028.41
2017-05-16T07:48:37.851Z,1028.37
2017-05-16T07:49:47.079Z,1028.37
2017-05-16T07:50:56.029Z,1028.36
2017-05-16T07:52:05.254Z,1028.29
2017-05-16T07:53:14.164Z,1028.23
2017-05-16T07:54:23.075Z,1028.24
2017-05-16T07:55:32.962Z,1028.3
2017-05-16T07:56:42.159Z,1028.28
2017-05-16T07:57:51.382Z,1028.3
2017-05-16T07:59:00.344Z,1028.38
2017-05-16T08:00:09.599Z,1028.34
2017-05-16T08:01:19.147Z,1028.29
2017-05-16T08:02:28.262Z,1028.29
2017-05-16T08:03:37.816Z,1028.28
2017-05-16T08:04:47.040Z,1028.33
2017-05-16T08:05:55.957Z,1028.31
2017-05-16T08:07:05.177Z,1028.33
2017-05-16T08:08:14.453Z,1028.3
2017-05-16T08:09:23.348Z,1028.29
2017-05-16T08:10:32.896Z,1028.27
2017-05-16T08:11:42.124Z,1028.27
2017-05-16T08:12:51.029Z,1028.29
2017-05-16T08:14:00.090Z,1028.27
2017-05-16T08:15:09.314Z,1028.25
2017-05-16T08:16:18.537Z,1028.28
2017-05-16T08:17:27.445Z,1028.21
2017-05-16T08:18:36.681Z,1028.23
2017-05-16T08:19:45.682Z,1028.23
2017-05-16T08:20:54.907Z,1028.2
2017-05-16T08:22:04.135Z,1028.2
2017-05-16T08:23:13.027Z,1028.23
2017-05-16T08:24:21.923Z,1028.19
2017-05-16T08:25:31.622Z,1028.22
2017-05-16T08:26:40.516Z,1028.21
2017-05-16T08:27:49.751Z,1028.18
2017-05-16T08:28:58.650Z,1028.15
2017-05-16T08:30:07.875Z,1028.15
2017-05-16T08:31:16.827Z,1028.19
2017-05-16T08:32:26.398Z,1028.19
2017-05-16T08:33:35.295Z,1028.16
2017-05-16T08:34:44.194Z,1028.2
2017-05-16T08:35:53.097Z,1028.14
2017-05-16T08:37:02.794Z,1028.21
2017-05-16T08:38:11.698Z,1028.17
2017-05-16T08:39:20.601Z,1028.16
2017-05-16T08:40:30.482Z,1028.18
2017-05-16T08:41:39.743Z,1028.21
2017-05-16T08:42:49.122Z,1028.2
2017-05-16T08:43:58.354Z,1028.18
2017-05-16T08:45:07.257Z,1028.15
2017-05-16T08:46:16.485Z,1028.21
2017-05-16T08:47:25.710Z,1028.23
2017-05-16T08:48:35.031Z,1028.21
2017-05-16T08:49:44.582Z,1028.19
2017-05-16T08:50:53.808Z,1028.19
2017-05-16T08:52:03.035Z,1028.22
2017-05-16T08:53:12.260Z,1028.21
2017-05-16T08:54:22.117Z,1028.2
2017-05-16T08:55:31.014Z,1028.16
2017-05-16T08:56:40.239Z,1028.19
2017-05-16T08:57:49.136Z,1028.16
2017-05-16T08:58:59.011Z,1028.13
2017-05-16T09:00:08.211Z,1028.16
2017-05-16T09:01:17.759Z,1028.16
2017-05-16T09:02:27.034Z,1028.2
2017-05-16T09:03:36.919Z,1028.16
2017-05-16T09:04:45.823Z,1028.17
2017-05-16T09:05:55.703Z,1028.16
2017-05-16T09:07:04.934Z,1028.11
2017-05-16T09:08:13.846Z,1028.11
2017-05-16T09:09:22.741Z,1028.06
2017-05-16T09:10:31.964Z,1028.1
2017-05-16T09:11:41.017Z,1028.08
2017-05-16T09:12:50.247Z,1028.15
2017-05-16T09:14:00.450Z,1028.11
2017-05-16T09:15:09.361Z,1028.13
2017-05-16T09:16:18.259Z,1028.14
2017-05-16T09:17:27.309Z,1028.13
2017-05-16T09:18:36.532Z,1028.11
2017-05-16T09:19:45.444Z,1028.17
2017-05-16T09:20:54.992Z,1028.18
2017-05-16T09:22:04.542Z,1028.22
2017-05-16T09:23:13.644Z,1028.18
2017-05-16T09:24:22.865Z,1028.16
2017-05-16T09:25:32.416Z,1028.15
2017-05-16T09:26:41.315Z,1028.13
2017-05-16T09:27:50.539Z,1028.15
2017-05-16T09:28:59.590Z,1028.22
2017-05-16T09:30:08.491Z,1028.22
2017-05-16T09:31:17.388Z,1028.3
2017-05-16T09:32:26.643Z,1028.32
2017-05-16T09:33:36.185Z,1028.38
2017-05-16T09:34:45.882Z,1028.44
2017-05-16T09:35:55.429Z,1028.44
2017-05-16T09:37:04.987Z,1028.4
2017-05-16T09:38:14.214Z,1028.36
2017-05-16T09:39:23.771Z,1028.33
2017-05-16T09:40:33.195Z,1028.37
2017-05-16T09:41:42.741Z,1028.34
2017-05-16T09:42:51.644Z,1028.33
2017-05-16T09:44:00.878Z,1028.35
2017-05-16T09:45:09.786Z,1028.32
2017-05-16T09:46:19.172Z,1028.33
2017-05-16T09:47:28.418Z,1028.39
2017-05-16T09:48:38.292Z,1028.4
2017-05-16T09:49:47.190Z,1028.46
2017-05-16T09:50:56.743Z,1028.47
2017-05-16T09:52:06.387Z,1028.5
2017-05-16T09:53:15.283Z,1028.43
2017-05-16T09:54:24.181Z,1028.41
2017-05-16T09:55:33.406Z,1028.44
2017-05-16T09:56:42.301Z,1028.44
2017-05-16T09:57:51.301Z,1028.45
2017-05-16T09:59:01.174Z,1028.42
2017-05-16T10:00:10.724Z,1028.44
2017-05-16T10:01:19.617Z,1028.42
2017-05-16T10:02:28.837Z,1028.47
2017-05-16T10:03:37.736Z,1028.43
2017-05-16T10:04:46.964Z,1028.44
2017-05-16T10:05:56.188Z,1028.45
2017-05-16T10:07:05.094Z,1028.47
2017-05-16T10:08:14.318Z,1028.42
2017-05-16T10:09:23.744Z,1028.48
2017-05-16T10:10:33.291Z,1028.44
2017-05-16T10:11:42.198Z,1028.38
2017-05-16T10:12:52.075Z,1028.33
2017-05-16T10:14:01.306Z,1028.29
2017-05-16T10:15:10.253Z,1028.29
2017-05-16T10:16:19.481Z,1028.28
2017-05-16T10:17:28.435Z,1028.23
2017-05-16T10:18:38.031Z,1028.18
2017-05-16T10:19:47.909Z,1028.17
2017-05-16T10:20:57.182Z,1028.15
2017-05-16T10:22:06.413Z,1028.14
2017-05-16T10:23:15.314Z,1028.11
2017-05-16T10:24:24.534Z,1028.1
2017-05-16T10:25:33.808Z,1028.15
2017-05-16T10:26:42.818Z,1028.11
2017-05-16T10:27:52.038Z,1028.1
2017-05-16T10:29:01.269Z,1028.09
2017-05-16T10:30:10.172Z,1028.12
2017-05-16T10:31:19.717Z,1028.13
2017-05-16T10:32:28.771Z,1028.1
2017-05-16T10:33:37.998Z,1028.09
2017-05-16T10:34:46.897Z,1028.05
2017-05-16T10:37:05.041Z,1027.98
2017-05-16T10:38:14.511Z,1027.98
2017-05-16T10:39:23.742Z,1027.99
2017-05-16T10:40:32.638Z,1027.95
2017-05-16T10:41:41.860Z,1027.94
2017-05-16T10:42:50.763Z,1027.91
2017-05-16T10:44:00.839Z,1027.91
2017-05-16T10:45:09.744Z,1027.9
2017-05-16T10:46:18.643Z,1027.87
2017-05-16T10:47:28.193Z,1027.85
2017-05-16T10:48:37.090Z,1027.86
2017-05-16T10:49:46.365Z,1027.88
2017-05-16T10:50:55.593Z,1027.82
2017-05-16T10:52:05.143Z,1027.85
2017-05-16T10:53:14.371Z,1027.88
2017-05-16T10:54:23.922Z,1027.87
2017-05-16T10:55:33.302Z,1027.84
2017-05-16T10:56:42.871Z,1027.85
2017-05-16T10:57:52.093Z,1027.85
2017-05-16T10:59:01.317Z,1027.86
2017-05-16T11:00:10.219Z,1027.84
2017-05-16T11:01:19.281Z,1027.87
2017-05-16T11:02:28.175Z,1027.86
2017-05-16T11:03:37.398Z,1027.85
2017-05-16T11:04:47.616Z,1027.84
2017-05-16T11:05:56.515Z,1027.86
2017-05-16T11:07:05.889Z,1027.87
2017-05-16T11:08:15.437Z,1027.84
2017-05-16T11:09:24.387Z,1027.85
2017-05-16T11:10:33.611Z,1027.83
2017-05-16T11:11:42.511Z,1027.82
2017-05-16T11:12:51.785Z,1027.83
2017-05-16T11:14:01.016Z,1027.83
2017-05-16T11:15:10.251Z,1027.81
2017-05-16T11:16:19.150Z,1027.83
2017-05-16T11:17:28.696Z,1027.79
2017-05-16T11:18:38.072Z,1027.81
2017-05-16T11:19:47.301Z,1027.82
2017-05-16T11:20:56.203Z,1027.78
2017-05-16T11:22:05.101Z,1027.77
2017-05-16T11:23:14.041Z,1027.77
2017-05-16T11:24:22.989Z,1027.74
2017-05-16T11:25:31.886Z,1027.72
2017-05-16T11:26:40.787Z,1027.69
2017-05-16T11:27:49.685Z,1027.69
2017-05-16T11:28:59.577Z,1027.72
2017-05-16T11:30:08.962Z,1027.71
2017-05-16T11:31:18.185Z,1027.66
2017-05-16T11:32:27.089Z,1027.69
2017-05-16T11:33:35.991Z,1027.65
2017-05-16T11:34:45.217Z,1027.65
2017-05-16T11:35:54.419Z,1027.63
2017-05-16T11:37:03.322Z,1027.65
2017-05-16T11:38:12.225Z,1027.67
2017-05-16T11:39:21.454Z,1027.66
2017-05-16T11:40:30.683Z,1027.6
2017-05-16T11:41:39.736Z,1027.64
2017-05-16T11:42:49.623Z,1027.59
2017-05-16T11:43:58.851Z,1027.63
2017-05-16T11:45:08.076Z,1027.61
2017-05-16T11:46:17.299Z,1027.6
2017-05-16T11:47:26.401Z,1027.65
2017-05-16T11:48:35.633Z,1027.61
2017-05-16T11:49:45.192Z,1027.63
2017-05-16T11:50:54.107Z,1027.62
2017-05-16T11:52:03.006Z,1027.65
2017-05-16T11:53:12.387Z,1027.62
2017-05-16T11:54:21.942Z,1027.6
2017-05-16T11:55:30.837Z,1027.6
2017-05-16T11:56:40.386Z,1027.63
2017-05-16T11:57:49.343Z,1027.64
2017-05-16T11:58:59.248Z,1027.62
2017-05-16T12:00:08.146Z,1027.57
2017-05-16T12:01:17.043Z,1027.6
2017-05-16T12:02:25.939Z,1027.58
2017-05-16T12:03:35.173Z,1027.57
2017-05-16T12:04:44.697Z,1027.51
2017-05-16T12:05:53.597Z,1027.49
2017-05-16T12:07:02.827Z,1027.47
2017-05-16T12:08:11.735Z,1027.43
2017-05-16T12:09:20.964Z,1027.43
2017-05-16T12:10:30.240Z,1027.42
2017-05-16T12:11:39.141Z,1027.42
2017-05-16T12:12:48.365Z,1027.4
2017-05-16T12:13:57.590Z,1027.4
2017-05-16T12:15:07.144Z,1027.39
2017-05-16T12:16:16.349Z,1027.38
2017-05-16T12:17:25.254Z,1027.33
2017-05-16T12:18:34.151Z,1027.35
2017-05-16T12:19:43.383Z,1027.34
2017-05-16T12:20:52.606Z,1027.31
2017-05-16T12:22:01.502Z,1027.37
2017-05-16T12:23:10.398Z,1027.33
2017-05-16T12:24:19.627Z,1027.32
2017-05-16T12:25:28.526Z,1027.33
2017-05-16T12:26:37.426Z,1027.36
2017-05-16T12:27:46.474Z,1027.33
2017-05-16T12:28:55.371Z,1027.31
2017-05-16T12:30:04.926Z,1027.33
2017-05-16T12:31:14.157Z,1027.35
2017-05-16T12:32:23.396Z,1027.32
2017-05-16T12:33:32.301Z,1027.33
2017-05-16T12:34:41.581Z,1027.33
2017-05-16T12:35:50.477Z,1027.32
2017-05-16T12:36:59.757Z,1027.32
2017-05-16T12:38:08.981Z,1027.35
2017-05-16T12:39:18.031Z,1027.32
2017-05-16T12:40:27.260Z,1027.31
2017-05-16T12:41:36.486Z,1027.34
2017-05-16T12:42:45.711Z,1027.32
2017-05-16T12:43:54.936Z,1027.32
2017-05-16T12:45:03.989Z,1027.33
2017-05-16T12:46:13.212Z,1027.31
2017-05-16T12:47:22.116Z,1027.31
2017-05-16T12:48:31.010Z,1027.31
2017-05-16T12:49:40.237Z,1027.29
2017-05-16T12:50:49.519Z,1027.29
2017-05-16T12:51:58.420Z,1027.26
2017-05-16T12:53:07.969Z,1027.25
2017-05-16T12:54:17.195Z,1027.24
2017-05-16T12:55:26.422Z,1027.25
2017-05-16T12:56:35.624Z,1027.24
2017-05-16T12:57:44.520Z,1027.21
2017-05-16T12:58:53.420Z,1027.23
2017-05-16T13:00:02.320Z,1027.21
2017-05-16T13:01:11.545Z,1027.23
2017-05-16T13:02:20.823Z,1027.19
2017-05-16T13:03:29.725Z,1027.15
2017-05-16T13:04:38.951Z,1027.15
2017-05-16T13:05:48.179Z,1027.13
2017-05-16T13:06:57.404Z,1027.09
2017-05-16T13:08:06.461Z,1027.1
2017-05-16T13:09:15.360Z,1027.11
2017-05-16T13:10:24.587Z,1027.07
2017-05-16T13:11:33.489Z,1027.06
2017-05-16T13:12:43.037Z,1027.06
2017-05-16T13:13:52.642Z,1027.1
2017-05-16T13:15:01.546Z,1027.08
2017-05-16T13:16:10.481Z,1027.05
2017-05-16T13:17:19.705Z,1027.09
2017-05-16T13:18:28.930Z,1027.05
2017-05-16T13:19:37.880Z,1027.09
2017-05-16T13:20:47.106Z,1027.07
2017-05-16T13:21:56.338Z,1027.04
2017-05-16T13:23:05.570Z,1027.04
2017-05-16T13:24:14.468Z,1027.04
2017-05-16T13:25:23.520Z,1027.08
2017-05-16T13:26:32.749Z,1027.03
2017-05-16T13:27:41.977Z,1027
2017-05-16T13:28:51.199Z,1027
2017-05-16T13:30:00.758Z,1027
2017-05-16T13:31:09.809Z,1027.02
2017-05-16T13:32:18.714Z,1027
2017-05-16T13:33:27.612Z,1027.01
2017-05-16T13:34:36.511Z,1027.04
2017-05-16T13:35:45.423Z,1027.02
2017-05-16T13:36:55.752Z,1027.07
2017-05-16T13:38:05.288Z,1027.03
2017-05-16T13:39:14.354Z,1027.06
2017-05-16T13:40:24.555Z,1027.07
2017-05-16T13:41:34.652Z,1027.05
2017-05-16T13:42:44.834Z,1027.07
2017-05-16T13:43:55.604Z,1027.06
2017-05-16T13:45:05.354Z,1027.08
2017-05-16T13:46:14.688Z,1027.07
2017-05-16T13:47:24.070Z,1027.06
2017-05-16T13:48:34.751Z,1027.02
2017-05-16T13:49:44.012Z,1027.07
2017-05-16T13:50:54.149Z,1027.02
2017-05-16T13:52:04.448Z,1027.03
2017-05-16T13:53:14.817Z,1026.97
2017-05-16T13:54:24.086Z,1027
2017-05-16T13:55:34.677Z,1026.96
2017-05-16T13:56:45.781Z,1026.92
2017-05-16T13:57:54.764Z,1026.95
2017-05-16T13:59:04.713Z,1026.92
2017-05-16T14:00:14.484Z,1026.92
2017-05-16T14:01:25.308Z,1026.9
2017-05-16T14:02:34.702Z,1026.92